Time;durP1;ratioP1;P1;durP2;ratioP2;P2;SDS_P1;SDS_P2;PMS_P1;PMS_P2;Temp;Humidity;BMP_temperature;BMP_pressure;BME280_temperature;BME280_humidity;BME280_pressure;Samples;Min_cycle;Max_cycle;Signal;HPM_P1;HPM_P2
2021/09/08 00:00:10;;;;;;;7.17;4.25;;;;;;;;;;1873124;77;21079;-50
2021/09/08 00:02:41;;;;;;;5.20;3.95;;;;;;;;;;1873199;75;21095;-49
2021/09/08 00:05:10;;;;;;;8.10;3.92;;;;;;;;;;1873015;77;21051;-51
2021/09/08 00:07:39;;;;;;;9.60;4.28;;;;;;;;;;1872882;76;21039;-50
2021/09/08 00:10:08;;;;;;;7.37;4.45;;;;;;;;;;1873000;76;21019;-51
2021/09/08 00:12:37;;;;;;;23.27;5.42;;;;;;;;;;1873021;76;21062;-50
2021/09/08 00:15:08;;;;;;;10.50;4.33;;;;;;;;;;1873195;76;21093;-49
2021/09/08 00:17:36;;;;;;;7.87;3.95;;;;;;;;;;1873117;76;20995;-50
2021/09/08 00:20:06;;;;;;;10.93;4.05;;;;;;;;;;1873199;77;21085;-50
2021/09/08 00:22:34;;;;;;;19.95;5.30;;;;;;;;;;1872980;77;20999;-48
2021/09/08 00:25:04;;;;;;;11.10;4.25;;;;;;;;;;1872949;77;21092;-50
2021/09/08 00:27:33;;;;;;;5.08;4.03;;;;;;;;;;1872983;77;21063;-50
2021/09/08 00:30:02;;;;;;;9.38;4.75;;;;;;;;;;1873008;77;21100;-48
2021/09/08 00:32:31;;;;;;;9.40;3.80;;;;;;;;;;1873011;77;21047;-50
2021/09/08 00:35:01;;;;;;;7.35;4.12;;;;;;;;;;1872955;76;21125;-50
2021/09/08 00:37:30;;;;;;;5.17;3.67;;;;;;;;;;1872975;76;21047;-50
2021/09/08 00:39:59;;;;;;;5.40;3.65;;;;;;;;;;1873148;76;21050;-50
2021/09/08 00:42:28;;;;;;;5.17;3.77;;;;;;;;;;1873077;76;21117;-50
2021/09/08 00:44:58;;;;;;;9.78;4.00;;;;;;;;;;1872960;77;21078;-51
2021/09/08 00:47:27;;;;;;;7.33;4.08;;;;;;;;;;1872821;76;21315;-51
2021/09/08 00:49:57;;;;;;;6.72;3.85;;;;;;;;;;1872897;77;21051;-50
2021/09/08 00:52:26;;;;;;;10.10;4.05;;;;;;;;;;1872848;76;21047;-50
2021/09/08 00:54:56;;;;;;;7.22;3.87;;;;;;;;;;1872896;75;21102;-48
2021/09/08 00:57:26;;;;;;;8.73;4.25;;;;;;;;;;1872970;77;21043;-50
2021/09/08 00:59:57;;;;;;;9.33;4.03;;;;;;;;;;1872982;77;21058;-49
2021/09/08 01:02:26;;;;;;;9.48;4.50;;;;;;;;;;1873001;76;21030;-50
2021/09/08 01:04:56;;;;;;;12.07;4.17;;;;;;;;;;1872959;76;21112;-50
2021/09/08 01:07:26;;;;;;;9.48;4.12;;;;;;;;;;1872911;75;21058;-50
2021/09/08 01:09:55;;;;;;;9.23;3.90;;;;;;;;;;1873125;76;21097;-50
2021/09/08 01:12:24;;;;;;;6.75;3.95;;;;;;;;;;1872986;75;20999;-50
2021/09/08 01:14:53;;;;;;;7.10;3.55;;;;;;;;;;1872944;77;21027;-50
2021/09/08 01:17:22;;;;;;;9.45;3.90;;;;;;;;;;1873045;77;20999;-51
2021/09/08 01:19:50;;;;;;;8.40;4.55;;;;;;;;;;1872968;76;21035;-50
2021/09/08 01:22:20;;;;;;;8.35;4.20;;;;;;;;;;1872869;77;21043;-50
2021/09/08 01:24:49;;;;;;;5.85;4.05;;;;;;;;;;1872969;75;21023;-48
2021/09/08 01:27:18;;;;;;;9.13;4.10;;;;;;;;;;1872828;75;21145;-51
2021/09/08 01:29:46;;;;;;;8.10;4.20;;;;;;;;;;1872864;75;21042;-49
2021/09/08 01:32:15;;;;;;;7.72;4.50;;;;;;;;;;1872825;77;21047;-50
2021/09/08 01:34:44;;;;;;;10.08;4.60;;;;;;;;;;1872870;76;21031;-49
2021/09/08 01:37:13;;;;;;;11.15;4.65;;;;;;;;;;1872854;77;21043;-50
2021/09/08 01:39:42;;;;;;;10.82;4.67;;;;;;;;;;1872866;76;21043;-51
2021/09/08 01:42:11;;;;;;;11.05;4.58;;;;;;;;;;1872924;77;21051;-48
2021/09/08 01:44:40;;;;;;;12.05;10.25;;;;;;;;;;1872926;77;21105;-51
2021/09/08 01:47:09;;;;;;;9.30;5.85;;;;;;;;;;1872824;77;21083;-51
2021/09/08 01:49:37;;;;;;;12.33;5.20;;;;;;;;;;1872809;76;21113;-49
2021/09/08 01:52:06;;;;;;;9.45;4.50;;;;;;;;;;1872850;75;21029;-51
2021/09/08 01:54:35;;;;;;;8.50;5.30;;;;;;;;;;1872816;76;21015;-50
2021/09/08 01:57:04;;;;;;;8.73;4.83;;;;;;;;;;1872954;77;21158;-48
2021/09/08 01:59:32;;;;;;;9.55;4.97;;;;;;;;;;1872938;77;21040;-51
2021/09/08 02:02:01;;;;;;;9.18;4.95;;;;;;;;;;1872886;76;21042;-50
2021/09/08 02:04:30;;;;;;;11.45;5.30;;;;;;;;;;1872900;77;21121;-50
2021/09/08 02:06:59;;;;;;;8.30;4.70;;;;;;;;;;1879177;76;21485;-50
2021/09/08 02:09:28;;;;;;;12.15;5.20;;;;;;;;;;1891646;76;21143;-50
2021/09/08 02:11:56;;;;;;;19.00;5.60;;;;;;;;;;1891540;75;21042;-51
2021/09/08 02:14:26;;;;;;;10.50;4.28;;;;;;;;;;1891716;76;21100;-50
2021/09/08 02:16:55;;;;;;;12.63;5.28;;;;;;;;;;1891552;75;21042;-50
2021/09/08 02:19:24;;;;;;;10.58;4.20;;;;;;;;;;1891582;76;21042;-49
2021/09/08 02:21:52;;;;;;;9.08;4.97;;;;;;;;;;1891619;76;21039;-49
2021/09/08 02:24:21;;;;;;;6.62;4.37;;;;;;;;;;1891671;76;21034;-50
2021/09/08 02:26:50;;;;;;;6.95;4.37;;;;;;;;;;1891499;76;21105;-49
2021/09/08 02:29:19;;;;;;;8.45;4.40;;;;;;;;;;1891543;76;21034;-51
2021/09/08 02:31:48;;;;;;;9.43;5.42;;;;;;;;;;1891538;76;21082;-48
2021/09/08 02:34:17;;;;;;;15.23;5.53;;;;;;;;;;1891589;76;21038;-50
2021/09/08 02:36:46;;;;;;;8.18;4.97;;;;;;;;;;1891652;76;21050;-50
2021/09/08 02:39:14;;;;;;;12.03;5.78;;;;;;;;;;1891601;76;21026;-48
2021/09/08 02:41:43;;;;;;;8.83;5.37;;;;;;;;;;1891614;76;21038;-50
2021/09/08 02:44:12;;;;;;;17.27;5.50;;;;;;;;;;1891696;76;21104;-49
2021/09/08 02:46:41;;;;;;;11.57;5.72;;;;;;;;;;1891535;76;21034;-50
2021/09/08 02:49:10;;;;;;;8.08;5.00;;;;;;;;;;1871918;76;21046;-50
2021/09/08 02:51:39;;;;;;;8.75;5.33;;;;;;;;;;1891573;75;21045;-50
2021/09/08 02:54:07;;;;;;;8.55;4.58;;;;;;;;;;1891523;76;21038;-49
2021/09/08 02:56:36;;;;;;;8.75;5.10;;;;;;;;;;1891500;76;21042;-49
2021/09/08 02:59:05;;;;;;;12.53;4.65;;;;;;;;;;1891601;75;21097;-50
2021/09/08 03:01:34;;;;;;;19.45;4.90;;;;;;;;;;1891576;76;21039;-48
2021/09/08 03:04:03;;;;;;;7.40;4.62;;;;;;;;;;1891517;76;21022;-50
2021/09/08 03:06:32;;;;;;;11.63;5.20;;;;;;;;;;1891507;76;21014;-50
2021/09/08 03:09:01;;;;;;;12.07;4.75;;;;;;;;;;1882438;75;21062;-48
2021/09/08 03:11:30;;;;;;;15.60;7.62;;;;;;;;;;1882245;76;21022;-47
2021/09/08 03:13:58;;;;;;;20.32;8.23;;;;;;;;;;1882298;75;21057;-49
2021/09/08 03:16:27;;;;;;;18.23;7.87;;;;;;;;;;1882388;75;21103;-47
2021/09/08 03:18:56;;;;;;;16.45;6.87;;;;;;;;;;1882379;76;21041;-51
2021/09/08 03:21:25;;;;;;;14.28;5.37;;;;;;;;;;1882225;76;21037;-50
2021/09/08 03:23:54;;;;;;;15.70;5.25;;;;;;;;;;1882272;76;21091;-49
2021/09/08 03:26:23;;;;;;;8.20;5.05;;;;;;;;;;1882182;75;21038;-49
2021/09/08 03:28:51;;;;;;;10.65;5.65;;;;;;;;;;1882276;76;21029;-47
2021/09/08 03:31:20;;;;;;;18.17;5.95;;;;;;;;;;1882351;76;21079;-50
2021/09/08 03:33:49;;;;;;;11.03;4.97;;;;;;;;;;1882299;76;21127;-50
2021/09/08 03:36:18;;;;;;;14.93;6.10;;;;;;;;;;1882349;76;21061;-51
2021/09/08 03:38:47;;;;;;;17.17;6.05;;;;;;;;;;1882273;76;21065;-51
2021/09/08 03:41:16;;;;;;;14.50;5.67;;;;;;;;;;1882359;76;21026;-50
2021/09/08 03:43:44;;;;;;;8.20;5.22;;;;;;;;;;1882444;76;21092;-50
2021/09/08 03:46:13;;;;;;;11.70;5.47;;;;;;;;;;1882317;76;21034;-50
2021/09/08 03:48:42;;;;;;;10.30;5.87;;;;;;;;;;1882339;76;20997;-51
2021/09/08 03:51:12;;;;;;;11.65;5.92;;;;;;;;;;1882456;76;21100;-50
2021/09/08 03:53:41;;;;;;;13.38;6.87;;;;;;;;;;1882211;76;21101;-50
2021/09/08 03:56:09;;;;;;;16.75;5.42;;;;;;;;;;1882195;76;21042;-49
2021/09/08 03:58:38;;;;;;;10.35;5.90;;;;;;;;;;1882409;76;21076;-51
2021/09/08 04:01:07;;;;;;;11.30;6.12;;;;;;;;;;1882212;76;21013;-50
2021/09/08 04:03:36;;;;;;;9.48;5.60;;;;;;;;;;1882260;76;21033;-48
2021/09/08 04:06:06;;;;;;;9.68;5.03;;;;;;;;;;1882242;75;21037;-50
2021/09/08 04:08:34;;;;;;;10.30;6.17;;;;;;;;;;1887994;75;21120;-50
2021/09/08 04:11:03;;;;;;;12.35;5.83;;;;;;;;;;1891415;76;21469;-51
2021/09/08 04:13:32;;;;;;;9.58;5.92;;;;;;;;;;1891546;76;21014;-50
2021/09/08 04:16:00;;;;;;;12.90;6.40;;;;;;;;;;1891629;76;21042;-47
2021/09/08 04:18:29;;;;;;;11.18;6.10;;;;;;;;;;1891528;76;21042;-50
2021/09/08 04:20:58;;;;;;;7.47;4.62;;;;;;;;;;1891641;76;21038;-50
2021/09/08 04:23:27;;;;;;;10.40;5.35;;;;;;;;;;1891676;76;21112;-50
2021/09/08 04:25:56;;;;;;;11.18;5.08;;;;;;;;;;1891485;76;21108;-51
2021/09/08 04:28:25;;;;;;;12.18;5.55;;;;;;;;;;1891615;76;21108;-48
2021/09/08 04:30:53;;;;;;;17.73;7.37;;;;;;;;;;1891523;76;21042;-50
2021/09/08 04:33:22;;;;;;;16.90;7.25;;;;;;;;;;1891677;76;21116;-48
2021/09/08 04:35:54;;;;;;;12.73;8.20;;;;;;;;;;1891703;76;21108;-50
2021/09/08 04:38:21;;;;;;;5.92;4.10;;;;;;;;;;1891554;75;21504;-50
2021/09/08 04:40:51;;;;;;;7.70;4.80;;;;;;;;;;1891582;76;21180;-48
2021/09/08 04:43:19;;;;;;;4.87;3.83;;;;;;;;;;1891529;75;21105;-50
2021/09/08 04:45:49;;;;;;;6.33;3.52;;;;;;;;;;1891552;76;21168;-51
2021/09/08 04:48:17;;;;;;;5.90;4.25;;;;;;;;;;1891712;76;21037;-50
2021/09/08 04:50:46;;;;;;;9.38;6.15;;;;;;;;;;1891715;76;21026;-51
2021/09/08 04:53:15;;;;;;;7.80;4.80;;;;;;;;;;1891617;76;21035;-50
2021/09/08 04:55:44;;;;;;;5.08;3.80;;;;;;;;;;1891540;76;21019;-51
2021/09/08 04:58:12;;;;;;;11.50;5.62;;;;;;;;;;1891682;75;21084;-50
2021/09/08 05:00:41;;;;;;;14.00;6.72;;;;;;;;;;1891544;76;21030;-50
2021/09/08 05:03:10;;;;;;;9.38;4.25;;;;;;;;;;1891576;76;21104;-50
2021/09/08 05:05:39;;;;;;;7.37;4.03;;;;;;;;;;1891542;76;21036;-51
2021/09/08 05:08:08;;;;;;;6.97;4.30;;;;;;;;;;1886596;75;21086;-50
2021/09/08 05:10:37;;;;;;;7.20;4.40;;;;;;;;;;1872942;77;21097;-50
2021/09/08 05:13:06;;;;;;;10.95;4.90;;;;;;;;;;1872867;77;21047;-51
2021/09/08 05:15:35;;;;;;;7.25;4.70;;;;;;;;;;1872974;75;21011;-49
2021/09/08 05:18:04;;;;;;;6.55;4.70;;;;;;;;;;1873048;77;21051;-51
2021/09/08 05:20:32;;;;;;;10.13;5.22;;;;;;;;;;1872796;77;21105;-48
2021/09/08 05:23:01;;;;;;;9.93;5.30;;;;;;;;;;1872819;75;21047;-51
2021/09/08 05:25:30;;;;;;;11.75;5.70;;;;;;;;;;1872866;76;21042;-50
2021/09/08 05:27:59;;;;;;;16.82;5.05;;;;;;;;;;1872856;75;21199;-50
2021/09/08 05:30:28;;;;;;;10.68;4.40;;;;;;;;;;1872886;76;21019;-50
2021/09/08 05:32:56;;;;;;;9.43;4.25;;;;;;;;;;1873094;77;21023;-51
2021/09/08 05:35:25;;;;;;;7.53;4.05;;;;;;;;;;1872770;76;21082;-50
2021/09/08 05:37:54;;;;;;;7.35;4.20;;;;;;;;;;1872748;75;21039;-50
2021/09/08 05:40:24;;;;;;;6.37;4.00;;;;;;;;;;1872823;77;21086;-51
2021/09/08 05:42:53;;;;;;;14.33;7.65;;;;;;;;;;1872799;76;21163;-52
2021/09/08 05:45:24;;;;;;;8.23;5.42;;;;;;;;;;1872925;77;21039;-51
2021/09/08 05:47:52;;;;;;;6.90;4.83;;;;;;;;;;1872895;76;21508;-51
2021/09/08 05:50:21;;;;;;;8.43;4.35;;;;;;;;;;1872713;77;21121;-50
2021/09/08 05:52:50;;;;;;;6.28;4.10;;;;;;;;;;1872718;77;21035;-52
2021/09/08 05:55:19;;;;;;;8.95;5.30;;;;;;;;;;1872881;77;21141;-51
2021/09/08 05:57:48;;;;;;;5.87;3.67;;;;;;;;;;1872915;77;21043;-52
2021/09/08 06:00:17;;;;;;;6.03;4.30;;;;;;;;;;1872837;77;21081;-51
2021/09/08 06:02:45;;;;;;;7.35;3.55;;;;;;;;;;1872733;77;21031;-51
2021/09/08 06:05:14;;;;;;;4.72;3.65;;;;;;;;;;1872885;76;21003;-51
2021/09/08 06:07:43;;;;;;;7.65;3.35;;;;;;;;;;1872771;76;21039;-49
2021/09/08 06:10:17;;;;;;;8.28;4.00;;;;;;;;;;1872782;76;21059;-48
2021/09/08 06:12:42;;;;;;;5.35;3.72;;;;;;;;;;1872615;76;21505;-51
2021/09/08 06:15:12;;;;;;;7.00;3.85;;;;;;;;;;1872855;77;21129;-50
2021/09/08 06:17:41;;;;;;;6.35;4.20;;;;;;;;;;1872892;77;21085;-50
2021/09/08 06:20:10;;;;;;;10.13;4.15;;;;;;;;;;1872822;76;21051;-52
2021/09/08 06:22:39;;;;;;;8.05;4.03;;;;;;;;;;1872867;75;21171;-51
2021/09/08 06:25:09;;;;;;;5.83;3.20;;;;;;;;;;1872855;77;21036;-51
2021/09/08 06:27:38;;;;;;;7.33;3.15;;;;;;;;;;1872731;75;20992;-52
2021/09/08 06:30:07;;;;;;;7.53;3.85;;;;;;;;;;1872836;75;21093;-51
2021/09/08 06:32:36;;;;;;;8.08;3.83;;;;;;;;;;1872833;76;21097;-52
2021/09/08 06:35:05;;;;;;;3.58;3.15;;;;;;;;;;1872809;77;21104;-49
2021/09/08 06:37:34;;;;;;;5.97;3.05;;;;;;;;;;1872747;76;21039;-49
2021/09/08 06:40:03;;;;;;;6.42;3.35;;;;;;;;;;1872830;77;21093;-52
2021/09/08 06:42:31;;;;;;;4.87;3.00;;;;;;;;;;1872841;75;21074;-52
2021/09/08 06:45:00;;;;;;;5.35;2.87;;;;;;;;;;1872853;77;21109;-51
2021/09/08 06:47:29;;;;;;;4.92;2.58;;;;;;;;;;1872827;76;21042;-52
2021/09/08 06:49:58;;;;;;;8.68;3.33;;;;;;;;;;1872652;77;21019;-51
2021/09/08 06:52:26;;;;;;;8.75;4.83;;;;;;;;;;1872699;77;21015;-52
2021/09/08 06:54:55;;;;;;;4.60;3.20;;;;;;;;;;1872631;77;21031;-52
2021/09/08 06:57:24;;;;;;;5.30;3.35;;;;;;;;;;1872911;75;21105;-52
2021/09/08 06:59:53;;;;;;;8.98;3.62;;;;;;;;;;1872678;75;21223;-52
2021/09/08 07:02:22;;;;;;;8.18;3.45;;;;;;;;;;1872741;77;21043;-52
2021/09/08 07:04:51;;;;;;;5.53;3.30;;;;;;;;;;1872943;77;21117;-49
2021/09/08 07:07:20;;;;;;;4.62;3.00;;;;;;;;;;1872747;77;21083;-48
2021/09/08 07:09:48;;;;;;;5.65;3.37;;;;;;;;;;1872680;76;21120;-51
2021/09/08 07:12:17;;;;;;;7.55;3.37;;;;;;;;;;1872679;77;20999;-52
2021/09/08 07:14:46;;;;;;;3.50;3.00;;;;;;;;;;1872645;75;21016;-52
2021/09/08 07:17:15;;;;;;;4.15;2.40;;;;;;;;;;1872711;76;21019;-50
2021/09/08 07:19:44;;;;;;;3.45;2.47;;;;;;;;;;1872696;77;21027;-51
2021/09/08 07:22:13;;;;;;;5.95;3.40;;;;;;;;;;1872765;77;21015;-51
2021/09/08 07:24:42;;;;;;;2.90;2.40;;;;;;;;;;1872911;77;21109;-51
2021/09/08 07:27:11;;;;;;;3.52;2.70;;;;;;;;;;1872712;77;21066;-51
2021/09/08 07:29:40;;;;;;;4.42;2.40;;;;;;;;;;1872816;77;21078;-51
2021/09/08 07:32:09;;;;;;;9.60;3.40;;;;;;;;;;1872884;76;21019;-51
2021/09/08 07:34:37;;;;;;;5.75;3.05;;;;;;;;;;1872934;77;21051;-51
2021/09/08 07:37:07;;;;;;;3.20;2.40;;;;;;;;;;1872839;76;21031;-52
2021/09/08 07:39:35;;;;;;;13.08;3.15;;;;;;;;;;1872874;77;21081;-51
2021/09/08 07:42:04;;;;;;;6.45;3.77;;;;;;;;;;1872963;77;21040;-51
2021/09/08 07:44:33;;;;;;;4.45;2.92;;;;;;;;;;1872818;77;21043;-52
2021/09/08 07:47:02;;;;;;;4.00;2.55;;;;;;;;;;1872561;77;21016;-49
2021/09/08 07:49:31;;;;;;;5.35;2.40;;;;;;;;;;1872866;76;21109;-51
2021/09/08 07:52:00;;;;;;;5.05;3.05;;;;;;;;;;1872762;76;21173;-52
2021/09/08 07:54:29;;;;;;;2.98;2.55;;;;;;;;;;1872773;76;21015;-50
2021/09/08 07:56:57;;;;;;;4.40;2.27;;;;;;;;;;1872888;77;21101;-52
2021/09/08 07:59:27;;;;;;;3.20;2.00;;;;;;;;;;1872897;77;21031;-51
2021/09/08 08:01:55;;;;;;;3.83;2.00;;;;;;;;;;1872978;76;21141;-51
2021/09/08 08:04:24;;;;;;;5.37;2.17;;;;;;;;;;1872991;76;21111;-51
2021/09/08 08:06:53;;;;;;;3.15;2.02;;;;;;;;;;1872859;76;21047;-53
2021/09/08 08:09:22;;;;;;;2.65;2.20;;;;;;;;;;1876717;76;21070;-51
2021/09/08 08:11:51;;;;;;;4.92;1.90;;;;;;;;;;1891752;76;21093;-51
2021/09/08 08:14:19;;;;;;;9.48;2.60;;;;;;;;;;1891431;76;21023;-50
2021/09/08 08:16:50;;;;;;;3.55;1.80;;;;;;;;;;1890198;74;21008;-47
2021/09/08 08:19:18;;;;;;;8.55;3.98;;;;;;;;;;1891211;76;21528;-50
2021/09/08 08:21:47;;;;;;;5.25;3.08;;;;;;;;;;1891257;75;21048;-48
2021/09/08 08:24:16;;;;;;;9.68;4.10;;;;;;;;;;1891186;76;21016;-45
2021/09/08 08:26:45;;;;;;;4.60;2.92;;;;;;;;;;1890947;74;21068;-50
2021/09/08 08:29:14;;;;;;;4.62;2.20;;;;;;;;;;1891212;76;21016;-49
2021/09/08 08:31:43;;;;;;;4.35;2.27;;;;;;;;;;1891304;76;21020;-45
2021/09/08 08:34:12;;;;;;;2.55;1.72;;;;;;;;;;1891359;76;21032;-46
2021/09/08 08:36:40;;;;;;;2.72;1.92;;;;;;;;;;1891129;76;21132;-47
2021/09/08 08:39:09;;;;;;;6.78;1.90;;;;;;;;;;1891263;76;21024;-46
2021/09/08 08:41:38;;;;;;;10.28;2.10;;;;;;;;;;1891637;76;21102;-46
2021/09/08 08:44:09;;;;;;;3.37;2.10;;;;;;;;;;1891433;75;21080;-48
2021/09/08 08:46:38;;;;;;;3.62;2.08;;;;;;;;;;1891513;76;21093;-46
2021/09/08 08:49:07;;;;;;;6.45;2.95;;;;;;;;;;1890025;74;21028;-49
2021/09/08 08:51:36;;;;;;;2.05;1.52;;;;;;;;;;1891427;75;21004;-49
2021/09/08 08:54:05;;;;;;;4.80;1.85;;;;;;;;;;1891537;76;21130;-48
2021/09/08 08:56:34;;;;;;;3.70;1.92;;;;;;;;;;1891429;76;21040;-50
2021/09/08 08:59:02;;;;;;;3.75;1.65;;;;;;;;;;1891386;76;21040;-49
2021/09/08 09:01:32;;;;;;;2.72;1.35;;;;;;;;;;1891448;76;21044;-50
2021/09/08 09:04:02;;;;;;;4.47;2.02;;;;;;;;;;1891413;76;21056;-48
2021/09/08 09:06:32;;;;;;;4.42;2.10;;;;;;;;;;1891420;76;21031;-49
2021/09/08 09:09:06;;;;;;;2.02;1.42;;;;;;;;;;1891411;75;21036;-49
2021/09/08 09:11:36;;;;;;;4.47;2.40;;;;;;;;;;1873848;76;21531;-49
2021/09/08 09:14:06;;;;;;;3.45;1.80;;;;;;;;;;1872792;76;21037;-50
2021/09/08 09:16:35;;;;;;;3.33;1.95;;;;;;;;;;1872734;75;21005;-51
2021/09/08 09:19:04;;;;;;;3.50;1.37;;;;;;;;;;1872679;75;21018;-46
2021/09/08 09:21:33;;;;;;;4.50;1.62;;;;;;;;;;1872653;76;21021;-49
2021/09/08 09:24:03;;;;;;;3.10;1.80;;;;;;;;;;1872616;75;21103;-50
2021/09/08 09:26:33;;;;;;;2.92;2.27;;;;;;;;;;1872703;75;21542;-50
2021/09/08 09:29:09;;;;;;;2.92;1.85;;;;;;;;;;1872737;75;21056;-50
2021/09/08 09:31:57;;;;;;;4.40;2.70;;;;;;;;;;1872755;77;21550;-50
2021/09/08 09:34:27;;;;;;;3.17;2.10;;;;;;;;;;1872141;76;21062;-47
2021/09/08 09:36:56;;;;;;;5.22;2.52;;;;;;;;;;1872414;77;21037;-49
2021/09/08 09:39:26;;;;;;;2.33;1.80;;;;;;;;;;1872851;75;21010;-49
2021/09/08 09:41:56;;;;;;;10.03;2.22;;;;;;;;;;1871596;76;21037;-50
2021/09/08 09:44:24;;;;;;;3.92;2.05;;;;;;;;;;1872681;75;20998;-49
2021/09/08 09:46:54;;;;;;;5.50;3.58;;;;;;;;;;1872750;77;21021;-47
2021/09/08 09:49:24;;;;;;;6.40;2.37;;;;;;;;;;1872816;76;21025;-49
2021/09/08 09:51:56;;;;;;;5.65;2.17;;;;;;;;;;1872780;75;21111;-50
2021/09/08 09:54:25;;;;;;;3.75;1.95;;;;;;;;;;1872840;76;21038;-48
2021/09/08 09:56:54;;;;;;;3.83;1.65;;;;;;;;;;1872679;75;21037;-50
2021/09/08 09:59:23;;;;;;;5.87;2.22;;;;;;;;;;1872716;75;21107;-50
2021/09/08 10:01:52;;;;;;;6.50;2.55;;;;;;;;;;1872721;75;21018;-48
2021/09/08 10:04:21;;;;;;;8.75;4.22;;;;;;;;;;1872808;75;21026;-49
2021/09/08 10:06:50;;;;;;;8.05;2.05;;;;;;;;;;1872772;75;21052;-50
2021/09/08 10:09:20;;;;;;;2.85;1.80;;;;;;;;;;1872699;75;21010;-48
2021/09/08 10:11:50;;;;;;;3.90;1.77;;;;;;;;;;1872780;75;21065;-47
2021/09/08 10:14:20;;;;;;;3.77;1.80;;;;;;;;;;1872773;77;21049;-47
2021/09/08 10:16:49;;;;;;;7.10;3.37;;;;;;;;;;1872329;77;21034;-49
2021/09/08 10:19:25;;;;;;;4.92;2.17;;;;;;;;;;1871561;75;21107;-46
2021/09/08 10:21:54;;;;;;;2.25;1.90;;;;;;;;;;1872258;77;21041;-48
2021/09/08 10:24:26;;;;;;;3.75;2.62;;;;;;;;;;1872029;77;21029;-48
2021/09/08 10:26:54;;;;;;;7.85;1.80;;;;;;;;;;1838500;77;21531;-48
2021/09/08 10:29:27;;;;;;;2.90;1.50;;;;;;;;;;1872077;76;21109;-46
2021/09/08 10:31:57;;;;;;;7.05;2.42;;;;;;;;;;1871969;75;21041;-48
2021/09/08 10:34:26;;;;;;;3.55;2.20;;;;;;;;;;1872025;75;21041;-49
2021/09/08 10:36:55;;;;;;;5.53;2.47;;;;;;;;;;1871837;77;21139;-49
2021/09/08 10:39:23;;;;;;;8.85;4.90;;;;;;;;;;1871750;75;21108;-46
2021/09/08 10:41:54;;;;;;;6.20;1.90;;;;;;;;;;1872171;77;21343;-48
2021/09/08 10:44:36;;;;;;;4.62;2.30;;;;;;;;;;1872118;75;21155;-46
2021/09/08 10:47:04;;;;;;;4.60;2.20;;;;;;;;;;1851620;76;21029;-48
2021/09/08 10:49:40;;;;;;;2.42;1.75;;;;;;;;;;1845870;76;21058;-48
2021/09/08 10:52:10;;;;;;;3.15;2.30;;;;;;;;;;1825834;78;21149;-48
2021/09/08 10:54:40;;;;;;;3.52;1.85;;;;;;;;;;1845931;77;21203;-49
2021/09/08 10:57:09;;;;;;;5.97;2.12;;;;;;;;;;1819899;78;21123;-49
2021/09/08 10:59:39;;;;;;;6.22;2.20;;;;;;;;;;1845928;77;21101;-49
2021/09/08 11:02:08;;;;;;;5.10;2.42;;;;;;;;;;1820208;79;21048;-46
2021/09/08 11:04:37;;;;;;;3.62;1.80;;;;;;;;;;1846007;76;21105;-49
2021/09/08 11:07:06;;;;;;;5.25;3.02;;;;;;;;;;1823085;77;21032;-49
2021/09/08 11:09:34;;;;;;;5.47;2.20;;;;;;;;;;1845976;78;21089;-49
2021/09/08 11:12:04;;;;;;;6.70;2.47;;;;;;;;;;1810042;78;21081;-49
2021/09/08 11:14:46;;;;;;;4.12;2.20;;;;;;;;;;1836768;76;21034;-47
2021/09/08 11:17:21;;;;;;;3.27;2.25;;;;;;;;;;1821667;79;21211;-50
2021/09/08 11:19:54;;;;;;;5.80;2.17;;;;;;;;;;1836959;77;21069;-49
2021/09/08 11:22:22;;;;;;;6.33;2.70;;;;;;;;;;1821417;79;21077;-48
2021/09/08 11:25:04;;;;;;;2.37;1.98;;;;;;;;;;1837000;77;21096;-47
2021/09/08 11:27:33;;;;;;;4.03;2.30;;;;;;;;;;1821879;79;21112;-48
2021/09/08 11:30:03;;;;;;;6.10;1.75;;;;;;;;;;1836908;77;21108;-49
2021/09/08 11:32:32;;;;;;;7.20;3.52;;;;;;;;;;1821929;78;21099;-49
2021/09/08 11:35:01;;;;;;;7.78;3.55;;;;;;;;;;1828061;78;21080;-50
2021/09/08 11:37:30;;;;;;;9.73;3.55;;;;;;;;;;1821858;79;21158;-48
2021/09/08 11:39:59;;;;;;;3.87;2.47;;;;;;;;;;1836812;77;21106;-50
2021/09/08 11:42:32;;;;;;;5.53;1.87;;;;;;;;;;1821807;78;21111;-49
2021/09/08 11:45:00;;;;;;;4.25;2.05;;;;;;;;;;1835689;76;21494;-50
2021/09/08 11:47:29;;;;;;;2.80;1.92;;;;;;;;;;1821780;78;21112;-50
2021/09/08 11:50:01;;;;;;;3.40;1.67;;;;;;;;;;1836812;77;21081;-45
2021/09/08 11:52:29;;;;;;;3.30;1.50;;;;;;;;;;1821835;78;21115;-47
2021/09/08 11:54:58;;;;;;;5.62;2.52;;;;;;;;;;1836949;77;21015;-48
2021/09/08 11:57:27;;;;;;;5.62;2.17;;;;;;;;;;1821696;79;21213;-49
2021/09/08 11:59:56;;;;;;;3.20;2.17;;;;;;;;;;1836918;76;21073;-49
2021/09/08 12:02:24;;;;;;;7.42;2.00;;;;;;;;;;1821838;78;21057;-46
2021/09/08 12:04:53;;;;;;;8.53;2.50;;;;;;;;;;1836883;78;21042;-50
2021/09/08 12:07:23;;;;;;;3.52;1.82;;;;;;;;;;1822003;78;21116;-50
2021/09/08 12:09:52;;;;;;;3.12;2.45;;;;;;;;;;1836384;77;21006;-49
2021/09/08 12:12:21;;;;;;;8.28;2.17;;;;;;;;;;1827847;78;21052;-50
2021/09/08 12:14:50;;;;;;;6.70;1.98;;;;;;;;;;1849167;77;21170;-47
2021/09/08 12:17:23;;;;;;;3.50;1.70;;;;;;;;;;1830760;78;21127;-46
2021/09/08 12:19:59;;;;;;;6.58;2.15;;;;;;;;;;1848883;76;21021;-50
2021/09/08 12:22:30;;;;;;;5.03;2.25;;;;;;;;;;1831527;78;21033;-49
2021/09/08 12:25:00;;;;;;;9.28;1.98;;;;;;;;;;1849193;77;21053;-49
2021/09/08 12:27:30;;;;;;;5.40;2.52;;;;;;;;;;1831461;78;21118;-49
2021/09/08 12:30:03;;;;;;;4.00;2.08;;;;;;;;;;1849664;77;21037;-50
2021/09/08 12:32:52;;;;;;;5.65;2.45;;;;;;;;;;1831358;77;21036;-47
2021/09/08 12:35:34;;;;;;;3.90;2.20;;;;;;;;;;1849727;76;21515;-49
2021/09/08 12:38:21;;;;;;;8.38;2.80;;;;;;;;;;1831368;78;21048;-47
2021/09/08 12:41:07;;;;;;;8.83;3.10;;;;;;;;;;1849612;77;21115;-48
2021/09/08 12:43:36;;;;;;;4.33;1.77;;;;;;;;;;1831394;77;21125;-50
2021/09/08 12:46:05;;;;;;;6.05;2.10;;;;;;;;;;1849754;77;21121;-49
2021/09/08 12:48:34;;;;;;;8.63;1.92;;;;;;;;;;1831402;78;21061;-47
2021/09/08 12:51:03;;;;;;;5.22;1.85;;;;;;;;;;1849601;76;21041;-51
2021/09/08 12:53:32;;;;;;;3.27;2.10;;;;;;;;;;1831504;78;21034;-47
2021/09/08 12:56:00;;;;;;;4.22;1.87;;;;;;;;;;1849530;76;21166;-51
2021/09/08 12:58:29;;;;;;;2.85;2.37;;;;;;;;;;1831354;78;21057;-49
2021/09/08 13:00:58;;;;;;;5.30;2.20;;;;;;;;;;1849562;77;21041;-50
2021/09/08 13:03:27;;;;;;;4.67;1.87;;;;;;;;;;1831404;78;21127;-48
2021/09/08 13:05:56;;;;;;;7.22;2.47;;;;;;;;;;1849638;77;21144;-50
2021/09/08 13:08:25;;;;;;;4.55;1.77;;;;;;;;;;1831418;78;21119;-50
2021/09/08 13:10:54;;;;;;;6.33;2.08;;;;;;;;;;1849754;76;21034;-50
2021/09/08 13:13:23;;;;;;;3.60;1.85;;;;;;;;;;1825291;77;21080;-50
2021/09/08 13:15:51;;;;;;;3.52;2.15;;;;;;;;;;1837666;78;21030;-50
2021/09/08 13:18:20;;;;;;;7.47;3.62;;;;;;;;;;1822391;78;21108;-49
2021/09/08 13:20:49;;;;;;;9.18;3.08;;;;;;;;;;1837671;78;21100;-50
2021/09/08 13:23:17;;;;;;;6.30;2.17;;;;;;;;;;1822425;78;21120;-51
2021/09/08 13:25:46;;;;;;;6.28;1.82;;;;;;;;;;1837640;78;21100;-50
2021/09/08 13:28:15;;;;;;;2.67;1.82;;;;;;;;;;1822521;78;21085;-50
2021/09/08 13:30:44;;;;;;;3.98;1.82;;;;;;;;;;1837558;77;21046;-50
2021/09/08 13:33:13;;;;;;;3.40;1.60;;;;;;;;;;1822458;78;21057;-48
2021/09/08 13:35:41;;;;;;;2.92;1.90;;;;;;;;;;1837598;78;21018;-50
2021/09/08 13:38:10;;;;;;;2.70;1.95;;;;;;;;;;1822466;78;21100;-49
2021/09/08 13:40:39;;;;;;;4.60;1.80;;;;;;;;;;1837600;76;21010;-49
2021/09/08 13:43:07;;;;;;;5.67;1.82;;;;;;;;;;1822403;79;21104;-46
2021/09/08 13:45:36;;;;;;;8.03;1.67;;;;;;;;;;1837537;78;21037;-48
2021/09/08 13:48:05;;;;;;;2.80;1.72;;;;;;;;;;1822458;79;21069;-50
2021/09/08 13:50:34;;;;;;;5.25;1.60;;;;;;;;;;1837565;77;21049;-50
2021/09/08 13:53:03;;;;;;;9.40;1.87;;;;;;;;;;1822397;78;21072;-49
2021/09/08 13:55:32;;;;;;;6.08;3.37;;;;;;;;;;1837593;78;21046;-50
2021/09/08 13:58:02;;;;;;;5.62;1.92;;;;;;;;;;1822481;79;21061;-50
2021/09/08 14:00:31;;;;;;;11.97;2.65;;;;;;;;;;1837654;77;21081;-48
2021/09/08 14:03:00;;;;;;;3.55;1.50;;;;;;;;;;1822484;78;21034;-49
2021/09/08 14:05:28;;;;;;;6.10;2.65;;;;;;;;;;1837740;76;21038;-49
2021/09/08 14:07:58;;;;;;;2.62;2.05;;;;;;;;;;1822420;79;21065;-49
2021/09/08 14:10:29;;;;;;;7.15;1.60;;;;;;;;;;1837392;76;21100;-48
2021/09/08 14:12:57;;;;;;;5.95;2.30;;;;;;;;;;1829027;77;21075;-49
2021/09/08 14:15:27;;;;;;;6.20;2.37;;;;;;;;;;1864857;77;21037;-49
2021/09/08 14:17:55;;;;;;;3.52;2.30;;;;;;;;;;1846342;78;21052;-47
2021/09/08 14:20:24;;;;;;;18.02;2.77;;;;;;;;;;1864924;77;21135;-48
2021/09/08 14:22:53;;;;;;;6.83;2.58;;;;;;;;;;1846314;77;21064;-48
2021/09/08 14:25:22;;;;;;;7.65;3.10;;;;;;;;;;1864883;77;21103;-48
2021/09/08 14:27:51;;;;;;;12.55;3.50;;;;;;;;;;1846303;78;21123;-49
2021/09/08 14:30:20;;;;;;;7.60;3.42;;;;;;;;;;1864854;76;21111;-48
2021/09/08 14:32:49;;;;;;;14.95;3.50;;;;;;;;;;1846360;78;21056;-47
2021/09/08 14:35:18;;;;;;;6.65;3.27;;;;;;;;;;1864941;76;21107;-50
2021/09/08 14:37:47;;;;;;;7.53;3.20;;;;;;;;;;1846313;78;21048;-49
2021/09/08 14:40:16;;;;;;;10.38;4.03;;;;;;;;;;1864839;77;21041;-48
2021/09/08 14:42:46;;;;;;;7.10;3.52;;;;;;;;;;1846328;77;21118;-48
2021/09/08 14:45:16;;;;;;;8.65;3.10;;;;;;;;;;1864846;76;21033;-50
2021/09/08 14:47:45;;;;;;;7.60;2.50;;;;;;;;;;1846276;77;21149;-49
2021/09/08 14:50:14;;;;;;;6.03;4.05;;;;;;;;;;1864898;76;21446;-51
2021/09/08 14:52:43;;;;;;;7.42;2.98;;;;;;;;;;1846289;77;21134;-49